createdAt,value
2017-05-28T00:00:23.687Z,1011.10
2017-05-28T00:01:11.447Z,1011.07
2017-05-28T00:01:59.664Z,1011.09
2017-05-28T00:02:48.700Z,1011.08
2017-05-28T00:03:42.645Z,1011.11
2017-05-28T00:04:36.644Z,1011.11
2017-05-28T00:05:25.599Z,1011.09
2017-05-28T00:06:13.646Z,1011.13
2017-05-28T00:07:01.678Z,1011.13
2017-05-28T00:08:07.716Z,1011.16
2017-05-28T00:09:07.785Z,1011.12
2017-05-28T00:10:07.794Z,1011.09
2017-05-28T00:11:07.824Z,1011.12
2017-05-28T00:12:01.829Z,1011.13
2017-05-28T00:13:01.857Z,1011.09
2017-05-28T00:13:56.943Z,1011.13
2017-05-28T00:14:52.058Z,1011.17
2017-05-28T00:15:52.958Z,1011.19
2017-05-28T00:16:48.013Z,1011.23
2017-05-28T00:17:36.076Z,1011.25
2017-05-28T00:18:31.107Z,1011.21
2017-05-28T00:19:26.178Z,1011.17
2017-05-28T00:20:26.193Z,1011.18
2017-05-28T00:21:32.228Z,1011.18
2017-05-28T00:22:21.317Z,1011.20
2017-05-28T00:23:15.282Z,1011.23
2017-05-28T00:24:15.832Z,1011.28
2017-05-28T00:25:10.394Z,1011.23
2017-05-28T00:26:10.461Z,1011.26
2017-05-28T00:27:10.494Z,1011.29
2017-05-28T00:28:10.503Z,1011.25
2017-05-28T00:29:04.612Z,1011.30
2017-05-28T00:30:05.565Z,1011.30
2017-05-28T00:31:05.600Z,1011.26
2017-05-28T00:32:00.746Z,1011.31
2017-05-28T00:32:55.733Z,1011.29
2017-05-28T00:34:01.757Z,1011.32
2017-05-28T00:34:55.794Z,1011.35
2017-05-28T00:35:56.815Z,1011.34
2017-05-28T00:36:56.843Z,1011.30
2017-05-28T00:37:56.924Z,1011.32
2017-05-28T00:38:56.957Z,1011.28
2017-05-28T00:39:57.008Z,1011.29
2017-05-28T00:40:57.017Z,1011.28
2017-05-28T00:41:57.038Z,1011.24
2017-05-28T00:42:57.101Z,1011.30
2017-05-28T00:43:57.163Z,1011.29
2017-05-28T00:44:58.192Z,1011.27
2017-05-28T00:45:53.214Z,1011.27
2017-05-28T00:46:53.189Z,1011.21
2017-05-28T00:47:47.222Z,1011.20
2017-05-28T00:48:48.287Z,1011.21
2017-05-28T00:49:48.416Z,1011.21
2017-05-28T00:50:43.365Z,1011.19
2017-05-28T00:51:43.407Z,1011.16
2017-05-28T00:52:43.415Z,1011.17
2017-05-28T00:53:43.497Z,1011.14
2017-05-28T00:54:37.494Z,1011.18
2017-05-28T00:55:37.586Z,1011.17
2017-05-28T00:56:33.050Z,1011.20
2017-05-28T00:57:27.596Z,1011.21
2017-05-28T00:58:27.661Z,1011.21
2017-05-28T00:59:22.690Z,1011.20
2017-05-28T01:00:22.765Z,1011.19
2017-05-28T01:01:23.810Z,1011.20
2017-05-28T01:02:17.849Z,1011.19
2017-05-28T01:03:17.829Z,1011.17
2017-05-28T01:04:12.939Z,1011.17
2017-05-28T01:05:07.963Z,1011.12
2017-05-28T01:06:08.875Z,1011.14
2017-05-28T01:07:04.048Z,1011.12
2017-05-28T01:07:58.987Z,1011.14
2017-05-28T01:09:00.047Z,1011.12
2017-05-28T01:10:00.152Z,1011.13
2017-05-28T01:10:55.123Z,1011.14
2017-05-28T01:11:55.176Z,1011.09
2017-05-28T01:12:49.216Z,1011.06
2017-05-28T01:13:49.215Z,1011.03
2017-05-28T01:14:44.265Z,1010.99
2017-05-28T01:15:39.300Z,1010.99
2017-05-28T01:16:39.357Z,1010.97
2017-05-28T01:17:34.378Z,1010.98
2017-05-28T01:18:29.435Z,1010.92
2017-05-28T01:19:30.487Z,1010.97
2017-05-28T01:20:30.915Z,1010.94
2017-05-28T01:21:25.502Z,1010.98
2017-05-28T01:22:25.605Z,1010.96
2017-05-28T01:23:19.622Z,1010.98
2017-05-28T01:24:19.920Z,1010.99
2017-05-28T01:25:14.712Z,1010.98
2017-05-28T01:26:09.780Z,1010.97
2017-05-28T01:27:09.800Z,1010.94
2017-05-28T01:28:04.825Z,1010.95
2017-05-28T01:28:59.995Z,1011.00
2017-05-28T01:30:00.868Z,1010.98
2017-05-28T01:31:00.947Z,1010.98
2017-05-28T01:31:56.009Z,1011.01
2017-05-28T01:32:56.020Z,1011.03
2017-05-28T01:33:50.063Z,1011.04
2017-05-28T01:34:50.086Z,1011.02
2017-05-28T01:35:45.132Z,1011.01
2017-05-28T01:36:40.210Z,1011.00
2017-05-28T01:37:40.212Z,1010.99
2017-05-28T01:38:35.293Z,1010.99
2017-05-28T01:39:30.297Z,1010.98
2017-05-28T01:40:30.371Z,1010.99
2017-05-28T01:41:25.423Z,1010.92
2017-05-28T01:42:20.405Z,1010.96
2017-05-28T01:43:15.448Z,1010.99
2017-05-28T01:44:09.531Z,1011.03
2017-05-28T01:44:57.516Z,1011.03
2017-05-28T01:45:45.568Z,1011.05
2017-05-28T01:46:33.620Z,1011.05
2017-05-28T01:47:21.731Z,1011.05
2017-05-28T01:48:10.773Z,1011.06
2017-05-28T01:49:05.758Z,1011.06
2017-05-28T01:50:05.800Z,1011.07
2017-05-28T01:50:53.835Z,1011.05
2017-05-28T01:51:47.884Z,1011.03
2017-05-28T01:52:41.905Z,1011.06
2017-05-28T01:53:36.989Z,1011.05
2017-05-28T01:54:31.004Z,1011.07
2017-05-28T01:55:26.067Z,1011.10
2017-05-28T01:56:21.062Z,1011.09
2017-05-28T01:57:15.207Z,1011.07
2017-05-28T01:58:09.167Z,1011.02
2017-05-28T01:59:03.207Z,1010.98
2017-05-28T01:59:51.288Z,1010.98
2017-05-28T02:00:40.320Z,1010.92
2017-05-28T02:01:28.435Z,1010.92
2017-05-28T02:02:16.418Z,1010.91
2017-05-28T02:03:05.391Z,1010.90
2017-05-28T02:03:53.510Z,1010.88
2017-05-28T02:04:41.519Z,1010.89
2017-05-28T02:05:30.611Z,1010.91
2017-05-28T02:06:18.657Z,1010.93
2017-05-28T02:07:12.692Z,1010.91
2017-05-28T02:08:06.721Z,1010.93
2017-05-28T02:09:00.895Z,1010.91
2017-05-28T02:09:55.791Z,1010.90
2017-05-28T02:10:49.839Z,1010.89
2017-05-28T02:11:44.904Z,1010.86
2017-05-28T02:12:44.923Z,1010.83
2017-05-28T02:13:40.115Z,1010.86
2017-05-28T02:14:35.029Z,1010.84
2017-05-28T02:15:29.055Z,1010.85
2017-05-28T02:16:23.074Z,1010.90
2017-05-28T02:17:18.108Z,1010.92
2017-05-28T02:18:18.133Z,1010.91
2017-05-28T02:19:13.212Z,1010.92
2017-05-28T02:20:08.288Z,1010.90
2017-05-28T02:20:57.298Z,1010.93
2017-05-28T02:21:46.283Z,1010.90
2017-05-28T02:22:34.355Z,1010.90
2017-05-28T02:23:22.478Z,1010.91
2017-05-28T02:24:10.458Z,1010.93
2017-05-28T02:24:59.534Z,1010.93
2017-05-28T02:25:53.565Z,1010.98
2017-05-28T02:26:53.611Z,1010.96
2017-05-28T02:27:48.627Z,1010.99
2017-05-28T02:28:48.686Z,1011.01
2017-05-28T02:29:42.694Z,1010.99
2017-05-28T02:30:42.820Z,1010.96
2017-05-28T02:31:37.790Z,1010.92
2017-05-28T02:32:31.808Z,1010.89
2017-05-28T02:33:26.857Z,1010.92
2017-05-28T02:34:21.167Z,1010.87
2017-05-28T02:35:15.930Z,1010.87
2017-05-28T02:36:16.010Z,1010.90
2017-05-28T02:37:10.983Z,1010.88
2017-05-28T02:38:06.079Z,1010.91
2017-05-28T02:39:06.092Z,1010.93
2017-05-28T02:40:01.120Z,1010.97
2017-05-28T02:40:56.269Z,1010.93
2017-05-28T02:41:45.203Z,1010.95
2017-05-28T02:42:40.275Z,1010.96
2017-05-28T02:43:35.684Z,1010.98
2017-05-28T02:44:29.768Z,1010.99
2017-05-28T02:45:23.415Z,1010.98
2017-05-28T02:46:18.398Z,1011.00
2017-05-28T02:47:12.501Z,1010.96
2017-05-28T02:48:12.499Z,1011.03
2017-05-28T02:49:06.513Z,1010.98
2017-05-28T02:50:00.608Z,1010.96
2017-05-28T02:50:54.598Z,1011.01
2017-05-28T02:51:49.673Z,1011.02
2017-05-28T02:52:49.966Z,1011.04
2017-05-28T02:53:44.756Z,1011.02
2017-05-28T02:54:38.793Z,1011.04
2017-05-28T02:55:33.808Z,1011.05
2017-05-28T02:56:28.310Z,1011.04
2017-05-28T02:57:27.895Z,1011.06
2017-05-28T02:58:22.973Z,1011.05
2017-05-28T02:59:18.014Z,1011.05
2017-05-28T03:00:12.055Z,1011.05
2017-05-28T03:01:07.103Z,1011.06
2017-05-28T03:02:01.090Z,1011.08
2017-05-28T03:02:56.116Z,1011.07
2017-05-28T03:03:50.404Z,1011.07
2017-05-28T03:04:44.243Z,1011.05
2017-05-28T03:05:38.287Z,1011.04
2017-05-28T03:06:33.296Z,1011.02
2017-05-28T03:07:33.364Z,1011.09
2017-05-28T03:08:28.398Z,1011.11
2017-05-28T03:09:23.423Z,1011.15
2017-05-28T03:10:17.471Z,1011.17
2017-05-28T03:11:12.539Z,1011.19
2017-05-28T03:12:06.551Z,1011.20
2017-05-28T03:13:00.601Z,1011.22
2017-05-28T03:14:06.589Z,1011.24
2017-05-28T03:15:01.658Z,1011.27
2017-05-28T03:15:55.725Z,1011.31
2017-05-28T03:16:55.761Z,1011.33
2017-05-28T03:17:50.786Z,1011.32
2017-05-28T03:18:50.813Z,1011.32
2017-05-28T03:19:50.811Z,1011.35
2017-05-28T03:20:50.974Z,1011.31
2017-05-28T03:21:44.945Z,1011.35
2017-05-28T03:22:44.976Z,1011.37
2017-05-28T03:23:40.336Z,1011.36
2017-05-28T03:24:35.076Z,1011.41
2017-05-28T03:25:29.072Z,1011.42
2017-05-28T03:26:29.133Z,1011.36
2017-05-28T03:27:24.167Z,1011.35
2017-05-28T03:28:19.186Z,1011.36
2017-05-28T03:29:19.288Z,1011.39
2017-05-28T03:30:14.257Z,1011.36
2017-05-28T03:31:09.292Z,1011.37
2017-05-28T03:32:03.402Z,1011.32
2017-05-28T03:33:04.363Z,1011.34
2017-05-28T03:34:04.418Z,1011.40
2017-05-28T03:35:04.472Z,1011.42
2017-05-28T03:35:59.533Z,1011.45
2017-05-28T03:36:59.546Z,1011.47
2017-05-28T03:37:59.675Z,1011.46
2017-05-28T03:38:59.628Z,1011.42
2017-05-28T03:39:59.678Z,1011.42
2017-05-28T03:40:59.684Z,1011.44
2017-05-28T03:42:05.747Z,1011.45
2017-05-28T03:43:00.778Z,1011.48
2017-05-28T03:43:54.834Z,1011.52
2017-05-28T03:44:54.906Z,1011.58
2017-05-28T03:45:49.870Z,1011.59
2017-05-28T03:46:44.942Z,1011.66
2017-05-28T03:47:45.009Z,1011.73
2017-05-28T03:48:39.981Z,1011.74
2017-05-28T03:49:35.102Z,1011.79
2017-05-28T03:50:30.081Z,1011.81
2017-05-28T03:51:18.146Z,1011.83
2017-05-28T03:52:12.192Z,1011.84
2017-05-28T03:53:01.234Z,1011.83
2017-05-28T03:53:49.341Z,1011.85
2017-05-28T03:54:38.309Z,1011.89
2017-05-28T03:55:26.396Z,1011.87
2017-05-28T03:56:20.395Z,1011.90
2017-05-28T03:57:15.497Z,1011.87
2017-05-28T03:58:15.539Z,1012.02
2017-05-28T03:59:03.579Z,1012.03
2017-05-28T03:59:51.561Z,1012.08
2017-05-28T04:00:40.670Z,1012.12
2017-05-28T04:01:28.669Z,1012.15
2017-05-28T04:02:28.711Z,1012.21
2017-05-28T04:03:17.794Z,1012.21
2017-05-28T04:04:05.775Z,1012.26
2017-05-28T04:04:59.901Z,1012.28
2017-05-28T04:05:48.964Z,1012.24
2017-05-28T04:06:37.007Z,1012.27
2017-05-28T04:07:31.027Z,1012.27
2017-05-28T04:08:25.068Z,1012.29
2017-05-28T04:09:19.310Z,1012.30
2017-05-28T04:10:13.136Z,1012.27
2017-05-28T04:11:07.262Z,1012.27
2017-05-28T04:12:01.206Z,1012.30
2017-05-28T04:12:50.290Z,1012.27
2017-05-28T04:13:38.349Z,1012.27
2017-05-28T04:14:33.375Z,1012.30
2017-05-28T04:15:27.427Z,1012.31
2017-05-28T04:16:16.417Z,1012.31
2017-05-28T04:17:10.487Z,1012.36
2017-05-28T04:17:59.584Z,1012.37
2017-05-28T04:18:53.592Z,1012.40
2017-05-28T04:19:47.672Z,1012.42
2017-05-28T04:20:47.686Z,1012.44
2017-05-28T04:21:41.700Z,1012.45
2017-05-28T04:22:47.729Z,1012.39
2017-05-28T04:23:37.371Z,1012.39
2017-05-28T04:24:26.283Z,1012.31
2017-05-28T04:25:20.118Z,1012.30
2017-05-28T04:26:13.921Z,1012.36
2017-05-28T04:27:09.002Z,1012.40
2017-05-28T04:27:57.008Z,1012.37
2017-05-28T04:28:51.059Z,1012.37
2017-05-28T04:29:45.100Z,1012.37
2017-05-28T04:30:39.181Z,1012.39
2017-05-28T04:31:34.207Z,1012.41
2017-05-28T04:32:29.246Z,1012.39
2017-05-28T04:33:18.293Z,1012.44
2017-05-28T04:34:07.313Z,1012.48
2017-05-28T04:35:07.380Z,1012.50
2017-05-28T04:36:02.410Z,1012.50
2017-05-28T04:36:51.514Z,1012.50
2017-05-28T04:37:46.579Z,1012.46
2017-05-28T04:38:40.489Z,1012.52
2017-05-28T04:39:40.620Z,1012.48
2017-05-28T04:40:40.603Z,1012.39
2017-05-28T04:41:34.761Z,1012.33
2017-05-28T04:42:29.718Z,1012.30
2017-05-28T04:43:24.852Z,1012.23
2017-05-28T04:44:18.837Z,1012.30
2017-05-28T04:45:06.892Z,1012.22
2017-05-28T04:46:06.901Z,1012.17
2017-05-28T04:46:55.983Z,1012.22
2017-05-28T04:47:44.981Z,1012.12
2017-05-28T04:48:45.011Z,1012.08
2017-05-28T04:49:45.089Z,1012.14
2017-05-28T04:50:34.083Z,1012.13
2017-05-28T04:51:28.167Z,1012.05
2017-05-28T04:52:28.278Z,1012.03
2017-05-28T04:53:22.272Z,1012.06
2017-05-28T04:54:22.282Z,1012.09
2017-05-28T04:55:17.331Z,1012.12
2017-05-28T04:56:11.377Z,1012.12
2017-05-28T04:56:59.411Z,1012.15
2017-05-28T04:57:54.512Z,1012.08
2017-05-28T04:58:43.486Z,1012.05
2017-05-28T04:59:37.602Z,1012.09
2017-05-28T05:00:37.591Z,1012.13
2017-05-28T05:01:26.685Z,1012.07
2017-05-28T05:02:26.678Z,1012.06
2017-05-28T05:03:20.774Z,1012.09
2017-05-28T05:04:14.769Z,1012.07
2017-05-28T05:05:02.791Z,1012.02
2017-05-28T05:05:50.825Z,1012.02
2017-05-28T05:06:51.883Z,1011.95
2017-05-28T05:07:51.984Z,1011.97
2017-05-28T05:08:41.439Z,1012.03
2017-05-28T05:09:36.027Z,1012.06
2017-05-28T05:10:36.079Z,1011.99
2017-05-28T05:11:30.118Z,1011.98
2017-05-28T05:12:30.170Z,1012.02
2017-05-28T05:13:25.210Z,1012.01
2017-05-28T05:14:20.476Z,1012.01
2017-05-28T05:15:14.310Z,1012.01
2017-05-28T05:16:14.312Z,1012.01
2017-05-28T05:17:09.381Z,1011.99
2017-05-28T05:18:04.433Z,1011.97
2017-05-28T05:18:52.510Z,1011.98
2017-05-28T05:19:52.520Z,1012.00
2017-05-28T05:20:46.529Z,1012.00
2017-05-28T05:21:41.580Z,1012.01
2017-05-28T05:22:36.634Z,1012.05
2017-05-28T05:23:30.670Z,1012.03
2017-05-28T05:24:18.741Z,1012.06
2017-05-28T05:25:07.809Z,1012.00
2017-05-28T05:25:56.804Z,1012.01
2017-05-28T05:26:50.825Z,1012.02
2017-05-28T05:27:51.929Z,1011.96
2017-05-28T05:28:52.939Z,1011.89
2017-05-28T05:29:53.994Z,1011.82
2017-05-28T05:30:54.085Z,1011.81
2017-05-28T05:31:54.063Z,1011.80
2017-05-28T05:32:54.079Z,1011.84
2017-05-28T05:33:49.158Z,1011.92
2017-05-28T05:34:37.183Z,1011.99
2017-05-28T05:35:31.289Z,1012.01
2017-05-28T05:36:19.316Z,1012.08
2017-05-28T05:37:13.322Z,1012.12
2017-05-28T05:38:01.384Z,1012.17
2017-05-28T05:38:56.404Z,1012.23
2017-05-28T05:39:51.508Z,1012.19
2017-05-28T05:40:40.507Z,1012.17
2017-05-28T05:41:29.583Z,1012.12
2017-05-28T05:42:18.597Z,1012.05
2017-05-28T05:43:12.655Z,1011.93
2017-05-28T05:44:12.707Z,1011.87
2017-05-28T05:45:06.733Z,1011.86
2017-05-28T05:46:06.803Z,1011.89
2017-05-28T05:47:00.904Z,1011.98
2017-05-28T05:48:01.927Z,1012.05
2017-05-28T05:49:01.959Z,1012.09
2017-05-28T05:49:55.987Z,1012.05
2017-05-28T05:50:56.365Z,1011.98
2017-05-28T05:51:56.060Z,1011.81
2017-05-28T05:52:51.261Z,1011.75
2017-05-28T05:53:46.158Z,1011.74
2017-05-28T05:54:46.162Z,1011.75
2017-05-28T05:55:41.211Z,1011.81
2017-05-28T05:56:36.273Z,1011.86
2017-05-28T05:57:31.287Z,1011.92
2017-05-28T05:58:26.335Z,1011.96
2017-05-28T05:59:21.391Z,1011.92
2017-05-28T06:00:10.402Z,1011.92
2017-05-28T06:01:05.458Z,1011.98
2017-05-28T06:02:05.506Z,1012.05
2017-05-28T06:03:00.567Z,1012.10
2017-05-28T06:03:54.655Z,1012.16
2017-05-28T06:04:54.667Z,1012.22
2017-05-28T06:05:48.701Z,1012.26
2017-05-28T06:06:42.780Z,1012.33
2017-05-28T06:07:36.823Z,1012.46
2017-05-28T06:08:37.094Z,1012.58
2017-05-28T06:09:25.858Z,1012.64
2017-05-28T06:10:13.894Z,1012.79
2017-05-28T06:11:02.950Z,1012.95
2017-05-28T06:11:51.997Z,1013.04
2017-05-28T06:12:40.097Z,1013.12
2017-05-28T06:13:34.091Z,1013.11
2017-05-28T06:14:29.470Z,1013.00
2017-05-28T06:15:23.190Z,1012.94
2017-05-28T06:16:23.686Z,1012.96
2017-05-28T06:17:17.283Z,1013.04
2017-05-28T06:18:06.325Z,1013.03
2017-05-28T06:18:55.399Z,1013.03
2017-05-28T06:19:43.683Z,1012.99
2017-05-28T06:20:38.511Z,1012.93
2017-05-28T06:21:26.536Z,1012.91
2017-05-28T06:22:21.570Z,1012.89
2017-05-28T06:23:22.612Z,1012.89
2017-05-28T06:24:23.051Z,1012.81
2017-05-28T06:25:17.706Z,1012.68
2017-05-28T06:26:17.686Z,1012.75
2017-05-28T06:27:12.780Z,1012.87
2017-05-28T06:28:07.820Z,1012.86
2017-05-28T06:29:07.839Z,1012.84
2017-05-28T06:30:02.905Z,1012.84
2017-05-28T06:31:02.966Z,1012.94
2017-05-28T06:32:03.999Z,1013.01
2017-05-28T06:33:04.032Z,1013.02
2017-05-28T06:33:59.109Z,1012.96
2017-05-28T06:34:59.095Z,1012.91
2017-05-28T06:35:54.173Z,1012.83
2017-05-28T06:36:49.391Z,1012.67
2017-05-28T06:37:38.264Z,1012.62
2017-05-28T06:38:32.289Z,1012.58
2017-05-28T06:39:27.324Z,1012.54
2017-05-28T06:40:22.828Z,1012.55
2017-05-28T06:41:16.430Z,1012.53
2017-05-28T06:42:04.483Z,1012.55
2017-05-28T06:42:58.519Z,1012.56
2017-05-28T06:43:47.618Z,1012.51
2017-05-28T06:44:35.598Z,1012.51
2017-05-28T06:45:23.679Z,1012.45
2017-05-28T06:46:11.698Z,1012.43
2017-05-28T06:47:05.805Z,1012.36
2017-05-28T06:47:53.805Z,1012.31
2017-05-28T06:48:42.809Z,1012.27
2017-05-28T06:49:36.900Z,1012.30
2017-05-28T06:50:24.909Z,1012.24
2017-05-28T06:51:19.001Z,1012.24
2017-05-28T06:52:14.189Z,1012.26
2017-05-28T06:53:15.100Z,1012.30
2017-05-28T06:54:15.101Z,1012.34
2017-05-28T06:55:16.144Z,1012.30
2017-05-28T06:56:04.210Z,1012.29
2017-05-28T06:56:52.219Z,1012.23
2017-05-28T06:57:47.285Z,1012.15
2017-05-28T06:58:47.330Z,1012.14
2017-05-28T06:59:42.360Z,1012.24
2017-05-28T07:00:42.391Z,1012.23
2017-05-28T07:01:37.459Z,1012.24
2017-05-28T07:02:32.498Z,1012.15
2017-05-28T07:03:26.505Z,1012.10
2017-05-28T07:04:21.988Z,1012.04
2017-05-28T07:05:10.600Z,1012.02
2017-05-28T07:06:04.709Z,1012.06
2017-05-28T07:06:58.735Z,1012.15
2017-05-28T07:07:47.792Z,1012.28
2017-05-28T07:08:35.992Z,1012.33
2017-05-28T07:09:30.838Z,1012.40
2017-05-28T07:10:19.891Z,1012.39
2017-05-28T07:11:13.921Z,1012.42
2017-05-28T07:12:13.982Z,1012.53
2017-05-28T07:13:14.008Z,1012.56
2017-05-28T07:14:14.018Z,1012.52
2017-05-28T07:15:14.082Z,1012.51
2017-05-28T07:16:14.119Z,1012.50
2017-05-28T07:17:14.219Z,1012.55
2017-05-28T07:18:09.225Z,1012.62
2017-05-28T07:19:04.265Z,1012.63
2017-05-28T07:19:59.299Z,1012.66
2017-05-28T07:20:54.346Z,1012.74
2017-05-28T07:21:48.384Z,1012.80
2017-05-28T07:22:37.425Z,1012.81
2017-05-28T07:23:26.486Z,1012.84
2017-05-28T07:24:22.036Z,1012.81
2017-05-28T07:25:15.896Z,1012.81
2017-05-28T07:26:15.594Z,1012.79
2017-05-28T07:27:04.698Z,1012.79
2017-05-28T07:27:52.716Z,1012.85
2017-05-28T07:28:41.275Z,1012.91
2017-05-28T07:29:34.825Z,1013.00
2017-05-28T07:30:23.919Z,1012.91
2017-05-28T07:31:11.905Z,1012.90
2017-05-28T07:32:12.011Z,1012.98
2017-05-28T07:33:06.079Z,1012.99
2017-05-28T07:33:55.160Z,1013.00
2017-05-28T07:34:50.199Z,1013.02
2017-05-28T07:35:38.305Z,1013.02
2017-05-28T07:36:32.368Z,1013.12
2017-05-28T07:37:26.488Z,1013.03
2017-05-28T07:38:21.506Z,1013.04
2017-05-28T07:39:10.582Z,1012.95
2017-05-28T07:39:59.071Z,1012.94
2017-05-28T07:40:46.795Z,1012.95
2017-05-28T07:41:41.788Z,1012.97
2017-05-28T07:42:41.810Z,1012.92
2017-05-28T07:43:42.387Z,1012.89
2017-05-28T07:44:35.990Z,1012.82
2017-05-28T07:45:30.035Z,1012.73
2017-05-28T07:46:24.111Z,1012.72
2017-05-28T07:47:18.191Z,1012.76
2017-05-28T07:48:18.285Z,1012.70
2017-05-28T07:49:19.321Z,1012.67
2017-05-28T07:50:19.379Z,1012.65
2017-05-28T07:51:14.416Z,1012.60
2017-05-28T07:52:14.495Z,1012.64
2017-05-28T07:53:08.602Z,1012.60
2017-05-28T07:54:02.685Z,1012.57
2017-05-28T07:54:57.762Z,1012.60
2017-05-28T07:55:51.821Z,1012.55
2017-05-28T07:56:52.110Z,1012.57
2017-05-28T07:57:47.086Z,1012.58
2017-05-28T07:58:36.023Z,1012.50
2017-05-28T07:59:30.122Z,1012.51
2017-05-28T08:00:24.217Z,1012.54
2017-05-28T08:01:24.265Z,1012.54
2017-05-28T08:02:24.367Z,1012.50
2017-05-28T08:03:24.602Z,1012.47
2017-05-28T08:04:12.511Z,1012.44
2017-05-28T08:05:06.597Z,1012.32
2017-05-28T08:06:06.957Z,1012.27
2017-05-28T08:07:00.797Z,1012.28
2017-05-28T08:07:54.793Z,1012.35
2017-05-28T08:08:50.106Z,1012.31
2017-05-28T08:09:44.984Z,1012.36
2017-05-28T08:10:45.064Z,1012.32
2017-05-28T08:11:39.518Z,1012.35
2017-05-28T08:12:34.247Z,1012.35
2017-05-28T08:13:28.319Z,1012.37
2017-05-28T08:14:23.462Z,1012.33
2017-05-28T08:15:18.849Z,1012.32
2017-05-28T08:16:06.495Z,1012.34
2017-05-28T08:16:55.599Z,1012.33
2017-05-28T08:17:50.892Z,1012.39
2017-05-28T08:18:39.977Z,1012.41
2017-05-28T08:19:39.881Z,1012.37
2017-05-28T08:20:34.941Z,1012.36
2017-05-28T08:21:23.995Z,1012.35
2017-05-28T08:22:18.097Z,1012.34
2017-05-28T08:23:18.420Z,1012.34
2017-05-28T08:24:07.474Z,1012.41
2017-05-28T08:25:01.692Z,1012.36
2017-05-28T08:25:49.804Z,1012.36
2017-05-28T08:26:38.873Z,1012.43
2017-05-28T08:27:26.609Z,1012.42
2017-05-28T08:28:14.691Z,1012.40
2017-05-28T08:29:03.869Z,1012.39
2017-05-28T08:29:51.889Z,1012.39
2017-05-28T08:30:46.513Z,1012.42
2017-05-28T08:31:34.011Z,1012.45
2017-05-28T08:32:28.172Z,1012.47
2017-05-28T08:33:22.291Z,1012.48
2017-05-28T08:34:11.561Z,1012.39
2017-05-28T08:35:00.632Z,1012.54
2017-05-28T08:35:54.418Z,1012.60
2017-05-28T08:36:48.824Z,1012.64
2017-05-28T08:37:42.614Z,1012.58
2017-05-28T08:38:36.714Z,1012.66
2017-05-28T08:39:31.900Z,1012.66
2017-05-28T08:40:25.980Z,1012.56
2017-05-28T08:41:14.924Z,1012.69
2017-05-28T08:42:09.043Z,1012.80
2017-05-28T08:43:03.063Z,1012.79
2017-05-28T08:44:04.163Z,1012.77
2017-05-28T08:44:58.241Z,1012.59
2017-05-28T08:45:53.657Z,1012.67
2017-05-28T08:46:48.583Z,1012.68
2017-05-28T08:47:42.489Z,1012.73
2017-05-28T08:48:36.579Z,1012.91
2017-05-28T08:49:25.677Z,1012.96
2017-05-28T08:50:14.743Z,1013.02
2017-05-28T08:51:09.842Z,1013.05
2017-05-28T08:52:09.931Z,1012.97
2017-05-28T08:53:04.181Z,1013.06
2017-05-28T08:54:04.084Z,1012.96
2017-05-28T08:55:04.163Z,1013.04
2017-05-28T08:55:58.360Z,1013.05
2017-05-28T08:56:53.470Z,1013.10
2017-05-28T08:57:47.610Z,1012.93
2017-05-28T08:58:42.935Z,1013.18
2017-05-28T08:59:42.557Z,1013.39
2017-05-28T09:00:42.609Z,1013.35
2017-05-28T09:01:37.035Z,1013.25
2017-05-28T09:02:31.765Z,1013.18
2017-05-28T09:03:25.918Z,1013.21
2017-05-28T09:04:15.188Z,1013.16
2017-05-28T09:05:04.204Z,1013.24
2017-05-28T09:05:59.218Z,1013.08
2017-05-28T09:06:53.330Z,1013.05
2017-05-28T09:07:42.275Z,1013.10
2017-05-28T09:08:37.629Z,1013.34
2017-05-28T09:09:26.701Z,1013.24
2017-05-28T09:10:20.860Z,1013.26
2017-05-28T09:11:15.726Z,1013.32
2017-05-28T09:12:10.708Z,1013.33
2017-05-28T09:13:05.788Z,1013.13
2017-05-28T09:13:55.108Z,1013.04
2017-05-28T09:14:48.903Z,1012.90
2017-05-28T09:15:43.027Z,1012.97
2017-05-28T09:16:38.107Z,1012.97
2017-05-28T09:17:27.349Z,1012.97
2017-05-28T09:18:21.440Z,1012.99
2017-05-28T09:19:15.872Z,1012.92
2017-05-28T09:20:15.745Z,1012.99
2017-05-28T09:21:16.902Z,1013.02
2017-05-28T09:22:16.583Z,1013.10
2017-05-28T09:23:10.683Z,1013.13
2017-05-28T09:24:05.030Z,1013.09
2017-05-28T09:24:59.960Z,1013.11
2017-05-28T09:25:54.136Z,1013.08
2017-05-28T09:26:54.065Z,1013.09
2017-05-28T09:27:48.197Z,1013.19
2017-05-28T09:28:43.670Z,1013.24
2017-05-28T09:29:43.658Z,1013.18
2017-05-28T09:30:37.705Z,1013.25
2017-05-28T09:31:26.780Z,1013.29
2017-05-28T09:32:15.870Z,1013.31
2017-05-28T09:33:10.955Z,1013.35
2017-05-28T09:34:06.070Z,1013.43
2017-05-28T09:34:54.159Z,1013.50
2017-05-28T09:35:48.651Z,1013.67
2017-05-28T09:36:42.305Z,1013.74
2017-05-28T09:37:36.372Z,1013.63
2017-05-28T09:38:30.440Z,1013.52
2017-05-28T09:39:19.578Z,1013.54
2017-05-28T09:40:07.652Z,1013.62
2017-05-28T09:40:56.735Z,1013.61
2017-05-28T09:41:51.789Z,1013.51
2017-05-28T09:42:46.896Z,1013.75
2017-05-28T09:43:47.025Z,1013.65
2017-05-28T09:44:41.011Z,1013.66
2017-05-28T09:45:30.117Z,1013.58
2017-05-28T09:46:19.221Z,1013.51
2017-05-28T09:47:14.237Z,1013.67
2017-05-28T09:48:09.374Z,1013.67
2017-05-28T09:49:03.450Z,1013.66
2017-05-28T09:49:51.600Z,1013.68
2017-05-28T09:50:45.654Z,1013.68
2017-05-28T09:51:45.731Z,1013.68
2017-05-28T09:52:51.778Z,1013.68
2017-05-28T09:53:40.849Z,1013.68
2017-05-28T09:54:42.001Z,1013.74
2017-05-28T09:55:31.053Z,1013.74
2017-05-28T09:56:19.206Z,1013.74
2017-05-28T09:57:08.194Z,1013.70
2017-05-28T09:58:08.080Z,1013.73
2017-05-28T09:58:56.402Z,1013.73
2017-05-28T09:59:45.357Z,1013.74
2017-05-28T10:00:34.413Z,1013.79
2017-05-28T10:01:34.280Z,1013.80
2017-05-28T10:02:34.601Z,1013.77
2017-05-28T10:03:28.391Z,1013.93
2017-05-28T10:04:23.495Z,1013.99
2017-05-28T10:05:23.906Z,1014.01
2017-05-28T10:06:23.943Z,1013.90
2017-05-28T10:07:18.696Z,1014.04
2017-05-28T10:08:07.799Z,1014.09
2017-05-28T10:09:07.821Z,1014.15
2017-05-28T10:10:02.921Z,1013.97
2017-05-28T10:10:57.004Z,1014.02
2017-05-28T10:11:52.012Z,1013.99
2017-05-28T10:12:47.083Z,1013.81
2017-05-28T10:13:36.533Z,1013.83
2017-05-28T10:14:30.440Z,1013.75
2017-05-28T10:15:18.371Z,1013.71
2017-05-28T10:16:12.806Z,1013.70
2017-05-28T10:17:01.557Z,1013.70
2017-05-28T10:17:50.589Z,1013.60
2017-05-28T10:18:45.406Z,1013.57
2017-05-28T10:19:33.768Z,1013.71
2017-05-28T10:20:22.781Z,1013.80
2017-05-28T10:21:16.899Z,1013.67
2017-05-28T10:22:12.316Z,1013.75
2017-05-28T10:23:07.204Z,1013.38
2017-05-28T10:24:07.731Z,1013.35
2017-05-28T10:25:01.524Z,1013.46
2017-05-28T10:25:50.341Z,1013.56
2017-05-28T10:26:50.658Z,1013.50
2017-05-28T10:27:50.422Z,1013.34
2017-05-28T10:28:44.992Z,1013.23
2017-05-28T10:29:38.892Z,1013.35
2017-05-28T10:30:32.688Z,1013.33
2017-05-28T10:31:20.772Z,1013.46
2017-05-28T10:32:14.838Z,1013.24
2017-05-28T10:33:14.914Z,1013.17
2017-05-28T10:34:15.320Z,1013.23
2017-05-28T10:35:04.463Z,1013.26
2017-05-28T10:35:58.507Z,1013.19
2017-05-28T10:36:59.587Z,1013.23
2017-05-28T10:37:53.710Z,1013.18
2017-05-28T10:38:42.769Z,1013.26
2017-05-28T10:39:31.856Z,1013.26
2017-05-28T10:40:26.458Z,1013.24
2017-05-28T10:41:14.994Z,1013.15
2017-05-28T10:42:10.000Z,1013.14
2017-05-28T10:43:09.792Z,1012.90
2017-05-28T10:44:10.044Z,1012.85
2017-05-28T10:45:10.988Z,1012.82
2017-05-28T10:46:11.078Z,1012.84
2017-05-28T10:47:11.090Z,1012.90
2017-05-28T10:48:00.217Z,1012.89
2017-05-28T10:48:54.294Z,1012.81
2017-05-28T10:49:48.441Z,1012.77
2017-05-28T10:50:49.398Z,1012.70
2017-05-28T10:51:44.532Z,1012.64
2017-05-28T10:52:38.567Z,1012.71
2017-05-28T10:53:32.663Z,1012.74
2017-05-28T10:54:20.784Z,1012.74
2017-05-28T10:55:14.770Z,1012.79
2017-05-28T10:56:14.869Z,1012.79
2017-05-28T10:57:09.406Z,1012.79
2017-05-28T10:58:09.062Z,1012.77
2017-05-28T10:59:09.194Z,1012.71
2017-05-28T11:00:03.228Z,1012.69
2017-05-28T11:00:57.286Z,1012.62
2017-05-28T11:01:51.357Z,1012.59